Time;durP1;ratioP1;P1;durP2;ratioP2;P2;SDS_P1;SDS_P2;PMS_P1;PMS_P2;Temp;Humidity;BMP_temperature;BMP_pressure;BME280_temperature;BME280_humidity;BME280_pressure;Samples;Min_cycle;Max_cycle;Signal;HPM_P1;HPM_P2
2024/03/31 00:02:14;;;;;;;36.80;6.60;;;;;;;15.04;54.09;100863.30;107608;1251;99061;-64
2024/03/31 00:04:42;;;;;;;34.70;6.30;;;;;;;14.99;53.93;100866.58;107611;1251;112386;-64
2024/03/31 00:07:10;;;;;;;23.40;5.70;;;;;;;14.97;54.00;100862.77;107617;1252;108304;-64
2024/03/31 00:09:38;;;;;;;32.50;6.10;;;;;;;14.95;54.04;100865.77;107582;1251;108333;-62
2024/03/31 00:12:07;;;;;;;29.00;6.50;;;;;;;14.91;53.94;100862.30;107531;1251;99162;-62
2024/03/31 00:14:35;;;;;;;31.70;5.80;;;;;;;14.87;54.18;100860.05;107554;1251;99720;-63
2024/03/31 00:17:03;;;;;;;32.00;6.30;;;;;;;14.83;54.15;100859.18;107562;1251;113032;-64
2024/03/31 00:19:32;;;;;;;28.80;6.70;;;;;;;14.78;54.70;100860.07;107626;1251;108512;-63
2024/03/31 00:22:00;;;;;;;36.60;6.90;;;;;;;14.70;54.53;100861.46;107529;1256;106928;-63
2024/03/31 00:24:28;;;;;;;26.40;6.60;;;;;;;14.65;54.73;100862.55;107554;1254;99185;-63
2024/03/31 00:26:56;;;;;;;24.80;6.50;;;;;;;14.62;55.05;100861.53;107547;1254;99058;-63
2024/03/31 00:29:24;;;;;;;25.80;5.80;;;;;;;14.59;55.91;100857.73;107541;1254;112484;-63
2024/03/31 00:31:52;;;;;;;26.20;5.40;;;;;;;14.52;56.15;100864.06;107559;1254;108486;-65
2024/03/31 00:34:23;;;;;;;33.00;6.40;;;;;;;14.47;56.16;100862.91;107524;1256;108562;-64
2024/03/31 00:36:51;;;;;;;37.70;6.10;;;;;;;14.42;55.98;100862.38;107589;1251;99061;-64
2024/03/31 00:39:20;;;;;;;32.40;7.20;;;;;;;14.37;56.22;100859.02;107595;1251;99727;-62
2024/03/31 00:41:48;;;;;;;50.30;7.70;;;;;;;14.30;56.63;100855.45;107542;1251;112812;-64
2024/03/31 00:44:16;;;;;;;29.40;5.90;;;;;;;14.24;56.44;100853.16;107503;1254;107262;-64
2024/03/31 00:46:44;;;;;;;30.30;6.30;;;;;;;14.19;56.72;100859.22;107578;1251;108733;-61
2024/03/31 00:49:12;;;;;;;23.60;6.40;;;;;;;14.15;57.36;100855.91;107504;1254;99261;-63
2024/03/31 00:51:40;;;;;;;35.80;6.30;;;;;;;14.07;57.18;100857.23;107457;1252;99719;-65
2024/03/31 00:54:09;;;;;;;36.00;5.70;;;;;;;14.02;56.92;100859.80;107584;1254;113210;-64
2024/03/31 00:56:37;;;;;;;39.90;6.60;;;;;;;13.99;56.88;100854.98;107613;1251;107910;-64
2024/03/31 00:59:05;;;;;;;37.00;5.80;;;;;;;13.97;56.89;100857.09;107564;1256;107813;-64
2024/03/31 01:01:33;;;;;;;29.00;7.20;;;;;;;13.95;56.91;100861.15;107566;1251;99416;-62
2024/03/31 01:04:02;;;;;;;32.50;6.00;;;;;;;13.95;56.96;100859.05;107595;1251;99060;-62
2024/03/31 01:06:30;;;;;;;31.50;5.90;;;;;;;13.93;56.90;100861.02;107544;1251;112950;-63
2024/03/31 01:08:58;;;;;;;24.20;5.50;;;;;;;13.89;56.89;100858.33;107599;1253;107754;-63
2024/03/31 01:11:27;;;;;;;31.30;6.00;;;;;;;13.85;56.84;100861.33;107461;1254;108521;-63
2024/03/31 01:13:59;;;;;;;22.40;6.40;;;;;;;13.78;56.85;100860.40;107586;1254;99194;-63
2024/03/31 01:16:28;;;;;;;25.10;6.10;;;;;;;13.70;56.91;100858.63;107659;1257;99090;-64
2024/03/31 01:18:56;;;;;;;22.70;5.60;;;;;;;13.61;57.14;100856.11;107653;1252;112751;-64
2024/03/31 01:21:26;;;;;;;28.90;5.90;;;;;;;13.51;57.27;100857.70;107682;1251;107551;-63
2024/03/31 01:23:59;;;;;;;29.40;6.20;;;;;;;13.38;57.60;100862.66;107505;1253;107093;-64
2024/03/31 01:26:28;;;;;;;27.30;6.60;;;;;;;13.28;57.83;100864.73;107669;1251;99289;-63
2024/03/31 01:28:57;;;;;;;31.70;6.70;;;;;;;13.20;57.90;100865.91;107564;1251;100864;-64
2024/03/31 01:31:25;;;;;;;25.20;6.10;;;;;;;13.12;57.98;100869.00;107609;1255;112660;-62
2024/03/31 01:33:54;;;;;;;30.50;6.30;;;;;;;13.05;58.07;100869.55;107519;1253;108429;-63
2024/03/31 01:36:22;;;;;;;33.10;6.50;;;;;;;12.99;58.20;100871.15;107558;1256;108910;-63
2024/03/31 01:38:50;;;;;;;35.20;6.30;;;;;;;12.91;58.46;100869.73;107591;1251;99275;-63
2024/03/31 01:41:32;;;;;;;30.10;6.00;;;;;;;12.86;58.65;100873.00;107610;1251;99814;-62
2024/03/31 01:44:01;;;;;;;27.60;6.60;;;;;;;12.80;58.65;100884.50;107533;1251;113467;-63
2024/03/31 01:46:29;;;;;;;36.70;6.30;;;;;;;12.76;58.76;100884.00;107535;1256;108813;-62
2024/03/31 01:48:57;;;;;;;31.00;7.00;;;;;;;12.71;59.15;100884.05;107554;1256;108269;-65
2024/03/31 01:51:25;;;;;;;21.50;6.20;;;;;;;12.68;59.11;100882.61;107538;1256;99972;-62
2024/03/31 01:53:53;;;;;;;30.30;6.50;;;;;;;12.63;59.09;100886.42;107446;1254;99093;-62
2024/03/31 01:56:21;;;;;;;28.40;6.80;;;;;;;12.60;59.18;100889.66;107493;1255;113609;-63
2024/03/31 01:58:50;;;;;;;24.70;6.20;;;;;;;12.54;59.27;100893.42;107604;1254;108820;-64
2024/03/31 02:01:18;;;;;;;22.40;5.30;;;;;;;12.49;59.37;100895.20;107542;1255;108795;-63
2024/03/31 02:03:46;;;;;;;23.20;5.70;;;;;;;12.42;59.46;100893.51;107590;1256;99307;-63
2024/03/31 02:06:14;;;;;;;37.00;7.30;;;;;;;12.35;59.46;100898.48;107504;1253;99364;-62
2024/03/31 02:08:42;;;;;;;26.40;5.90;;;;;;;12.31;59.51;100900.80;107638;1254;112621;-63
2024/03/31 02:11:10;;;;;;;28.60;5.40;;;;;;;12.28;59.61;100903.24;107538;1254;108652;-63
2024/03/31 02:13:39;;;;;;;28.80;6.60;;;;;;;12.26;59.66;100907.42;107501;1254;107251;-63
2024/03/31 02:16:07;;;;;;;33.60;6.70;;;;;;;12.22;59.71;100908.11;107486;1254;99066;-64
2024/03/31 02:18:36;;;;;;;26.10;6.00;;;;;;;12.17;59.70;100907.29;107590;1255;99711;-63
2024/03/31 02:21:05;;;;;;;26.60;6.30;;;;;;;12.11;59.86;100899.77;107511;1258;114087;-61
2024/03/31 02:23:33;;;;;;;31.50;7.80;;;;;;;12.07;59.84;100897.46;107541;1256;108578;-63
2024/03/31 02:26:02;;;;;;;26.90;6.00;;;;;;;12.04;60.08;100893.27;107487;1254;107061;-63
2024/03/31 02:28:32;;;;;;;33.70;6.90;;;;;;;12.00;60.08;100895.74;107553;1254;99173;-62
2024/03/31 02:31:00;;;;;;;29.50;6.10;;;;;;;11.97;60.30;100899.64;107521;1255;99096;-63
2024/03/31 02:33:28;;;;;;;22.30;6.50;;;;;;;11.93;60.47;100902.16;107496;1254;113135;-63
2024/03/31 02:35:57;;;;;;;30.10;6.10;;;;;;;11.91;60.77;100901.98;107552;1256;109049;-63
2024/03/31 02:38:26;;;;;;;22.80;6.70;;;;;;;11.86;61.27;100908.34;107443;1255;107333;-63
2024/03/31 02:40:54;;;;;;;23.30;5.60;;;;;;;11.77;61.06;100910.38;107531;1254;99175;-63
2024/03/31 02:43:22;;;;;;;18.00;5.30;;;;;;;11.74;61.33;100912.16;107602;1254;99072;-64
2024/03/31 02:45:51;;;;;;;37.10;6.50;;;;;;;11.65;61.65;100915.64;107526;1255;112052;-61
2024/03/31 02:48:19;;;;;;;31.10;6.40;;;;;;;11.55;61.69;100918.83;107524;1254;108623;-62
2024/03/31 02:50:48;;;;;;;24.70;5.90;;;;;;;11.48;61.80;100921.14;107513;1254;107818;-62
2024/03/31 02:53:16;;;;;;;30.50;6.30;;;;;;;11.44;61.87;100918.09;107551;1254;99169;-62
2024/03/31 02:55:45;;;;;;;28.00;5.80;;;;;;;11.43;61.87;100919.20;107521;1256;99066;-62
2024/03/31 02:58:13;;;;;;;30.50;6.30;;;;;;;11.41;62.03;100919.21;107577;1257;112241;-62
2024/03/31 03:00:41;;;;;;;25.30;6.90;;;;;;;11.37;62.19;100917.27;107455;1254;107661;-62
2024/03/31 03:03:09;;;;;;;29.30;6.60;;;;;;;11.31;62.55;100912.63;107543;1255;108433;-62
2024/03/31 03:05:37;;;;;;;25.70;5.90;;;;;;;11.22;62.62;100912.11;107423;1254;99207;-63
2024/03/31 03:08:06;;;;;;;26.80;6.50;;;;;;;11.16;62.66;100919.07;107584;1255;99059;-63
2024/03/31 03:10:34;;;;;;;31.00;6.40;;;;;;;11.12;62.74;100918.23;107458;1259;112540;-62
2024/03/31 03:13:03;;;;;;;24.50;6.20;;;;;;;11.10;62.89;100917.65;107565;1253;107547;-63
2024/03/31 03:15:31;;;;;;;31.00;6.10;;;;;;;11.10;63.07;100919.59;107530;1256;106258;-64
2024/03/31 03:17:59;;;;;;;30.10;7.10;;;;;;;11.09;62.88;100913.13;107496;1257;99090;-63
2024/03/31 03:20:27;;;;;;;33.40;6.20;;;;;;;11.07;62.89;100914.17;107538;1251;99143;-63
2024/03/31 03:22:59;;;;;;;27.50;6.10;;;;;;;11.07;62.95;100915.24;107568;1251;113115;-63
2024/03/31 03:25:27;;;;;;;25.20;6.60;;;;;;;11.07;63.00;100918.31;107514;1254;108250;-62
2024/03/31 03:27:56;;;;;;;33.60;6.80;;;;;;;11.07;63.07;100922.27;107553;1255;108170;-63
2024/03/31 03:30:24;;;;;;;28.30;6.60;;;;;;;11.07;63.20;100925.42;107515;1256;99233;-63
2024/03/31 03:32:53;;;;;;;30.60;6.50;;;;;;;11.07;63.11;100923.45;107568;1251;99154;-63
2024/03/31 03:35:23;;;;;;;31.50;7.80;;;;;;;11.05;62.97;100926.48;107510;1257;113438;-62
2024/03/31 03:37:51;;;;;;;25.90;6.40;;;;;;;11.06;62.98;100928.81;107493;1254;108391;-61
2024/03/31 03:40:19;;;;;;;31.90;8.10;;;;;;;11.07;62.98;100935.70;107500;1251;107171;-62
2024/03/31 03:42:48;;;;;;;37.50;7.20;;;;;;;11.08;62.88;100942.94;107451;1260;99234;-63
2024/03/31 03:45:16;;;;;;;31.90;6.50;;;;;;;11.09;62.90;100945.55;107575;1257;99694;-63
2024/03/31 03:47:45;;;;;;;32.30;6.00;;;;;;;11.10;62.96;100943.17;107569;1253;113640;-63
2024/03/31 03:50:13;;;;;;;30.50;5.80;;;;;;;11.09;63.03;100944.15;107565;1256;108482;-63
2024/03/31 03:52:41;;;;;;;35.30;6.60;;;;;;;11.08;63.02;100945.30;107523;1251;108374;-63
2024/03/31 03:55:10;;;;;;;23.20;5.50;;;;;;;11.05;62.86;100947.89;107520;1251;100028;-63
2024/03/31 03:57:38;;;;;;;31.70;5.00;;;;;;;11.03;62.89;100949.00;107531;1251;99070;-64
2024/03/31 04:00:07;;;;;;;26.70;6.00;;;;;;;10.97;62.79;100953.98;107605;1256;113221;-63
2024/03/31 04:02:43;;;;;;;21.90;5.30;;;;;;;10.92;62.85;100954.61;107561;1251;107230;-63
2024/03/31 04:05:11;;;;;;;24.10;6.20;;;;;;;10.89;62.85;100954.48;107505;1251;107927;-63
2024/03/31 04:07:39;;;;;;;19.50;4.90;;;;;;;10.88;62.87;100956.39;107592;1251;99185;-63
2024/03/31 04:10:07;;;;;;;25.50;5.80;;;;;;;10.88;63.09;100960.55;107483;1257;99094;-63
2024/03/31 04:12:36;;;;;;;24.80;6.10;;;;;;;10.86;63.05;100964.64;107596;1256;113360;-64
2024/03/31 04:15:04;;;;;;;30.50;6.30;;;;;;;10.86;63.25;100969.47;107496;1256;108331;-63
2024/03/31 04:17:34;;;;;;;35.60;6.40;;;;;;;10.87;63.14;100974.73;107538;1254;107765;-63
2024/03/31 04:20:04;;;;;;;30.40;6.10;;;;;;;10.88;63.14;100973.81;107482;1256;99184;-63
2024/03/31 04:22:33;;;;;;;20.30;4.90;;;;;;;10.88;63.17;100976.15;107506;1255;99713;-63
2024/03/31 04:25:01;;;;;;;23.50;5.50;;;;;;;10.87;63.17;100971.37;107596;1254;113459;-63
2024/03/31 04:27:29;;;;;;;28.40;5.60;;;;;;;10.86;63.11;100968.61;107521;1251;108580;-64
2024/03/31 04:29:59;;;;;;;28.20;6.80;;;;;;;10.83;63.37;100973.32;107554;1257;108687;-64
2024/03/31 04:32:27;;;;;;;19.10;5.70;;;;;;;10.83;63.39;100968.70;107477;1257;99181;-65
2024/03/31 04:34:56;;;;;;;26.50;6.30;;;;;;;10.84;63.51;100967.50;107478;1254;99322;-64
2024/03/31 04:37:24;;;;;;;29.10;5.80;;;;;;;10.85;63.64;100972.95;107568;1254;113811;-63
2024/03/31 04:39:52;;;;;;;26.30;6.20;;;;;;;10.87;63.80;100972.21;107565;1254;108672;-64
2024/03/31 04:42:21;;;;;;;24.50;6.20;;;;;;;10.90;63.56;100972.14;107628;1251;107914;-63
2024/03/31 04:44:51;;;;;;;40.80;6.80;;;;;;;10.94;63.57;100972.17;107496;1251;99411;-63
2024/03/31 04:47:21;;;;;;;32.20;6.00;;;;;;;10.97;63.68;100973.88;107546;1254;99224;-63
2024/03/31 04:49:50;;;;;;;21.30;5.40;;;;;;;11.00;63.62;100970.41;107396;1254;113060;-63
2024/03/31 04:52:18;;;;;;;43.50;6.20;;;;;;;11.03;63.70;100971.07;107541;1254;107123;-64
2024/03/31 04:54:46;;;;;;;34.10;7.30;;;;;;;11.07;63.70;100965.83;107422;1255;108461;-64
2024/03/31 04:57:14;;;;;;;24.40;5.70;;;;;;;11.11;63.65;100965.64;107509;1254;99287;-64
2024/03/31 04:59:44;;;;;;;32.10;8.10;;;;;;;11.16;63.64;100964.52;107522;1254;99184;-63
2024/03/31 05:02:12;;;;;;;22.00;6.20;;;;;;;11.21;63.75;100964.10;107470;1254;112598;-63
2024/03/31 05:04:40;;;;;;;33.50;8.90;;;;;;;11.26;64.28;100964.06;107422;1251;107965;-64
2024/03/31 05:07:08;;;;;;;24.30;7.70;;;;;;;11.30;64.36;100969.05;107356;1254;107453;-63
2024/03/31 05:09:36;;;;;;;28.80;6.70;;;;;;;11.35;64.65;100965.55;107394;1254;99069;-64
2024/03/31 05:12:06;;;;;;;30.10;5.60;;;;;;;11.40;64.78;100966.04;107428;1254;99746;-63
2024/03/31 05:14:34;;;;;;;26.90;6.60;;;;;;;11.43;64.61;100969.48;107617;1251;112360;-63
2024/03/31 05:17:05;;;;;;;22.30;5.70;;;;;;;11.47;64.47;100966.45;107431;1254;108294;-63
2024/03/31 05:19:33;;;;;;;30.40;6.50;;;;;;;11.53;64.59;100968.80;107485;1254;107820;-62
2024/03/31 05:22:01;;;;;;;34.90;6.90;;;;;;;11.57;64.53;100968.23;107474;1252;99333;-64
2024/03/31 05:24:30;;;;;;;29.80;7.50;;;;;;;11.62;64.54;100968.92;107593;1253;99738;-63
2024/03/31 05:26:58;;;;;;;31.10;7.20;;;;;;;11.68;64.42;100967.46;107525;1254;113098;-63
2024/03/31 05:29:27;;;;;;;25.50;6.30;;;;;;;11.77;64.55;100967.44;107591;1254;107737;-63
2024/03/31 05:31:55;;;;;;;33.90;7.20;;;;;;;11.83;64.43;100965.91;107485;1256;108233;-63
2024/03/31 05:34:49;;;;;;;28.60;6.10;;;;;;;11.93;64.37;100961.30;107326;1254;99163;-64
2024/03/31 05:37:18;;;;;;;27.80;6.30;;;;;;;12.00;64.33;100959.37;107433;1254;99636;-62
2024/03/31 05:39:46;;;;;;;26.40;6.80;;;;;;;12.08;64.25;100958.84;107451;1254;112274;-64
2024/03/31 05:42:14;;;;;;;23.90;6.00;;;;;;;12.15;64.14;100958.04;107473;1254;107939;-64
2024/03/31 05:44:42;;;;;;;36.40;6.50;;;;;;;12.24;64.12;100962.65;107443;1254;108001;-63
2024/03/31 05:47:10;;;;;;;34.90;7.00;;;;;;;12.31;64.06;100964.59;107413;1253;99290;-63
2024/03/31 05:49:39;;;;;;;34.30;7.10;;;;;;;12.38;64.08;100960.39;107494;1253;99280;-64
2024/03/31 05:52:07;;;;;;;33.10;7.90;;;;;;;12.45;63.96;100964.48;107601;1254;112718;-64
2024/03/31 05:54:36;;;;;;;36.30;6.30;;;;;;;12.51;63.78;100966.59;107508;1254;108388;-64
2024/03/31 05:57:04;;;;;;;31.60;7.70;;;;;;;12.58;63.90;100965.40;107395;1253;107141;-62
2024/03/31 05:59:33;;;;;;;35.50;6.80;;;;;;;12.67;63.83;100959.52;107399;1253;99274;-64
2024/03/31 06:02:01;;;;;;;25.90;7.30;;;;;;;12.76;63.63;100955.42;107420;1252;99701;-63
2024/03/31 06:04:29;;;;;;;13.50;6.00;;;;;;;12.85;63.36;100953.48;107445;1254;112452;-63
2024/03/31 06:06:57;;;;;;;33.90;7.50;;;;;;;12.93;63.14;100957.74;107618;1251;108304;-63
2024/03/31 06:09:26;;;;;;;32.10;7.00;;;;;;;13.01;63.13;100958.98;107607;1251;108254;-62
2024/03/31 06:11:55;;;;;;;33.40;6.30;;;;;;;13.09;62.90;100963.44;107577;1254;99207;-63
2024/03/31 06:14:23;;;;;;;23.80;7.20;;;;;;;13.16;62.84;100961.54;107556;1254;99855;-63
2024/03/31 06:16:52;;;;;;;37.20;7.40;;;;;;;13.22;62.68;100960.02;107615;1254;112257;-63
2024/03/31 06:19:20;;;;;;;30.80;7.80;;;;;;;13.30;62.54;100961.27;107419;1254;107893;-63
2024/03/31 06:21:49;;;;;;;25.90;6.50;;;;;;;13.38;62.30;100963.52;107504;1254;108535;-63
2024/03/31 06:24:17;;;;;;;26.20;7.00;;;;;;;13.45;62.30;100959.27;107519;1254;99192;-63
2024/03/31 06:26:45;;;;;;;29.80;7.00;;;;;;;13.51;62.03;100959.80;107424;1257;99790;-63
2024/03/31 06:29:14;;;;;;;28.90;7.00;;;;;;;13.56;61.98;100956.05;107584;1253;113111;-63
2024/03/31 06:31:42;;;;;;;39.90;7.90;;;;;;;13.62;61.83;100956.23;107607;1256;108326;-63
2024/03/31 06:34:11;;;;;;;29.80;6.00;;;;;;;13.69;61.95;100957.34;107421;1252;108184;-63
2024/03/31 06:36:39;;;;;;;23.90;6.80;;;;;;;13.79;61.98;100954.67;107466;1254;99070;-63
2024/03/31 06:39:07;;;;;;;35.70;9.50;;;;;;;13.92;61.76;100949.49;107445;1254;99168;-63
2024/03/31 06:41:35;;;;;;;32.80;5.70;;;;;;;14.04;61.45;100952.61;107425;1254;112792;-63
2024/03/31 06:44:04;;;;;;;34.80;6.10;;;;;;;14.12;61.11;100949.25;107418;1254;108256;-63
2024/03/31 06:46:33;;;;;;;27.70;5.30;;;;;;;14.21;61.03;100946.08;107510;1254;108619;-64
2024/03/31 06:49:01;;;;;;;19.50;4.60;;;;;;;14.30;60.92;100948.72;107611;1254;98941;-62
2024/03/31 06:51:30;;;;;;;20.60;4.40;;;;;;;14.43;60.69;100945.11;107460;1254;99061;-63
2024/03/31 06:53:58;;;;;;;21.90;4.20;;;;;;;14.53;60.41;100942.97;107387;1254;113548;-62
2024/03/31 06:56:26;;;;;;;24.80;5.10;;;;;;;14.63;60.34;100941.73;107495;1254;107884;-63
2024/03/31 06:58:54;;;;;;;28.40;5.30;;;;;;;14.74;60.23;100939.77;107642;1254;108240;-63
2024/03/31 07:01:23;;;;;;;29.90;5.80;;;;;;;14.84;59.97;100943.76;107619;1253;99288;-63
2024/03/31 07:03:51;;;;;;;22.60;4.70;;;;;;;14.95;60.00;100940.36;107579;1256;99235;-63
2024/03/31 07:06:19;;;;;;;20.30;4.80;;;;;;;15.06;59.46;100932.61;107498;1253;113696;-63
2024/03/31 07:08:48;;;;;;;26.30;5.50;;;;;;;15.15;59.22;100939.08;107687;1255;108350;-63
2024/03/31 07:11:16;;;;;;;20.60;4.70;;;;;;;15.24;59.06;100941.48;107579;1254;107638;-64
2024/03/31 07:13:46;;;;;;;20.10;5.20;;;;;;;15.32;58.79;100948.84;107394;1254;99176;-63
2024/03/31 07:16:14;;;;;;;24.50;5.10;;;;;;;15.41;58.45;100949.45;107587;1254;99050;-63
2024/03/31 07:18:42;;;;;;;27.30;5.30;;;;;;;15.46;57.98;100948.25;107413;1254;112578;-64
2024/03/31 07:21:11;;;;;;;26.80;5.40;;;;;;;15.53;57.84;100943.83;107450;1254;108314;-64
2024/03/31 07:23:39;;;;;;;21.40;5.50;;;;;;;15.58;57.81;100944.89;107379;1254;107707;-63
2024/03/31 07:26:08;;;;;;;20.70;4.80;;;;;;;15.65;57.59;100943.17;107422;1253;99202;-63
2024/03/31 07:28:37;;;;;;;20.50;5.10;;;;;;;15.74;57.52;100946.27;107621;1254;99769;-63
2024/03/31 07:31:05;;;;;;;25.60;6.30;;;;;;;15.84;57.33;100945.59;107387;1254;113366;-62
2024/03/31 07:33:33;;;;;;;24.50;5.00;;;;;;;15.95;57.30;100948.40;107482;1251;108674;-64
2024/03/31 07:36:02;;;;;;;31.40;5.90;;;;;;;16.07;57.36;100948.56;107491;1254;110013;-64
2024/03/31 07:38:31;;;;;;;27.80;5.10;;;;;;;16.20;57.25;100947.11;107572;1254;99671;-64
2024/03/31 07:40:59;;;;;;;23.20;5.40;;;;;;;16.33;56.87;100943.85;107646;1256;99356;-62
2024/03/31 07:43:28;;;;;;;24.20;5.20;;;;;;;16.46;56.55;100946.01;107516;1254;113675;-63
2024/03/31 07:45:56;;;;;;;16.70;4.30;;;;;;;16.60;56.38;100947.94;107498;1256;108739;-63
2024/03/31 07:48:24;;;;;;;25.90;5.00;;;;;;;16.73;56.34;100952.33;107486;1251;107941;-64
2024/03/31 07:50:52;;;;;;;24.70;4.80;;;;;;;16.88;56.09;100946.13;107403;1254;99266;-64
2024/03/31 07:53:20;;;;;;;34.70;5.10;;;;;;;17.02;55.59;100940.75;107431;1256;99106;-64
2024/03/31 07:56:08;;;;;;;30.90;5.10;;;;;;;17.15;55.41;100933.88;107545;1254;112862;-63
2024/03/31 07:58:36;;;;;;;29.70;5.50;;;;;;;17.31;55.31;100928.58;106801;1254;1014497;-63
2024/03/31 08:01:05;;;;;;;20.40;4.90;;;;;;;17.49;55.03;100925.29;107552;1251;108534;-63
2024/03/31 08:03:33;;;;;;;28.00;5.90;;;;;;;17.63;54.40;100924.73;107366;1251;99237;-63
2024/03/31 08:06:02;;;;;;;28.60;6.00;;;;;;;17.76;54.05;100920.48;107480;1254;99729;-64
2024/03/31 08:08:30;;;;;;;31.80;5.60;;;;;;;17.89;53.87;100918.55;107512;1254;113319;-64
2024/03/31 08:10:58;;;;;;;32.70;6.00;;;;;;;18.05;53.61;100923.00;107435;1251;108321;-64
2024/03/31 08:13:26;;;;;;;21.60;5.00;;;;;;;18.22;53.03;100918.45;107413;1251;107384;-65
2024/03/31 08:15:54;;;;;;;28.70;5.00;;;;;;;18.37;52.94;100920.61;107377;1254;99144;-65
2024/03/31 08:18:23;;;;;;;21.80;4.90;;;;;;;18.53;52.76;100918.52;107467;1252;99159;-62
2024/03/31 08:20:51;;;;;;;26.40;5.70;;;;;;;18.70;52.68;100919.79;107433;1254;112422;-63
2024/03/31 08:23:19;;;;;;;23.20;4.40;;;;;;;18.83;51.83;100915.24;107426;1256;108276;-64
2024/03/31 08:25:51;;;;;;;17.00;5.50;;;;;;;18.98;51.66;100915.83;107464;1254;108320;-63
2024/03/31 08:28:19;;;;;;;29.20;5.40;;;;;;;19.15;51.61;100922.17;107405;1254;99070;-63
2024/03/31 08:30:48;;;;;;;24.20;5.10;;;;;;;19.29;51.08;100921.85;107313;1254;99214;-65
2024/03/31 08:33:16;;;;;;;21.80;4.80;;;;;;;19.47;50.55;100914.77;107464;1256;112307;-65
2024/03/31 08:35:52;;;;;;;30.30;4.80;;;;;;;19.64;50.61;100905.42;107353;1253;108476;-63
2024/03/31 08:38:20;;;;;;;31.80;6.20;;;;;;;19.83;50.61;100898.84;107454;1253;108277;-64
2024/03/31 08:40:55;;;;;;;16.20;4.00;;;;;;;20.03;50.50;100898.09;107418;1253;99311;-64
2024/03/31 08:43:27;;;;;;;32.50;5.30;;;;;;;20.26;50.06;100893.62;107461;1254;99175;-63
2024/03/31 08:45:56;;;;;;;34.40;5.00;;;;;;;20.50;49.06;100891.06;107552;1253;112057;-64
2024/03/31 08:48:26;;;;;;;28.40;5.80;;;;;;;20.72;48.59;100880.00;107523;1254;107783;-63
2024/03/31 08:50:56;;;;;;;23.90;6.30;;;;;;;20.93;47.92;100877.33;107503;1256;107827;-63
2024/03/31 08:53:26;;;;;;;25.00;5.90;;;;;;;21.15;47.32;100874.31;107576;1255;99323;-64
2024/03/31 08:55:54;;;;;;;32.50;4.90;;;;;;;21.36;47.04;100867.11;107616;1253;99316;-63
2024/03/31 08:58:22;;;;;;;28.20;5.20;;;;;;;21.59;46.80;100863.53;107507;1254;113894;-63
2024/03/31 09:00:51;;;;;;;19.90;4.60;;;;;;;21.86;46.68;100864.91;107528;1253;108278;-64
2024/03/31 09:03:23;;;;;;;37.20;5.00;;;;;;;22.09;45.62;100854.38;107457;1254;107817;-64
2024/03/31 09:05:51;;;;;;;29.00;4.90;;;;;;;22.31;45.80;100853.81;107374;1251;99265;-64
2024/03/31 09:08:19;;;;;;;27.30;5.10;;;;;;;22.53;45.25;100847.02;107388;1254;99073;-63
2024/03/31 09:11:09;;;;;;;21.80;4.00;;;;;;;22.76;43.81;100839.91;107496;1254;113394;-64
2024/03/31 09:13:39;;;;;;;30.10;5.10;;;;;;;22.98;43.54;100837.87;107502;1254;107879;-64
2024/03/31 09:16:07;;;;;;;33.70;5.00;;;;;;;23.22;42.94;100837.94;107437;1254;106726;-64
2024/03/31 09:18:35;;;;;;;26.10;4.90;;;;;;;23.49;42.09;100835.77;107475;1251;99296;-64
2024/03/31 09:21:04;;;;;;;33.40;4.70;;;;;;;23.76;41.82;100834.71;107418;1254;99109;-63
2024/03/31 09:23:32;;;;;;;23.60;4.50;;;;;;;23.98;41.14;100834.81;107511;1253;111627;-64
2024/03/31 09:26:00;;;;;;;20.80;4.00;;;;;;;24.32;41.25;100834.09;107532;1256;107998;-64
2024/03/31 09:28:29;;;;;;;16.90;4.30;;;;;;;24.70;40.44;100837.77;107449;1254;109081;-64
2024/03/31 09:30:57;;;;;;;25.10;5.30;;;;;;;25.17;39.60;100823.27;107485;1253;99189;-64
2024/03/31 09:33:25;;;;;;;29.70;5.80;;;;;;;25.85;39.26;100825.70;107523;1253;99080;-64
2024/03/31 09:35:56;;;;;;;25.00;5.20;;;;;;;26.60;38.13;100812.91;107516;1256;112737;-63
2024/03/31 09:38:24;;;;;;;24.90;4.80;;;;;;;27.17;36.82;100814.43;107455;1251;108907;-64
2024/03/31 09:40:54;;;;;;;29.00;4.80;;;;;;;27.78;36.33;100806.45;107464;1251;108130;-64
2024/03/31 09:43:23;;;;;;;26.00;4.90;;;;;;;28.37;35.39;100803.17;107399;1254;99171;-62
2024/03/31 09:45:51;;;;;;;24.00;4.40;;;;;;;29.03;35.30;100802.04;107501;1251;99062;-63
2024/03/31 09:48:25;;;;;;;30.70;4.70;;;;;;;29.83;34.16;100797.58;107492;1254;113565;-64
2024/03/31 09:51:02;;;;;;;36.20;5.20;;;;;;;30.47;31.70;100787.83;107499;1251;108567;-64
2024/03/31 09:53:34;;;;;;;30.30;5.10;;;;;;;30.79;31.88;100793.64;107424;1253;108659;-63
2024/03/31 09:56:06;;;;;;;25.00;4.70;;;;;;;31.08;29.66;100783.40;107450;1254;99862;-64
2024/03/31 09:58:36;;;;;;;21.00;4.60;;;;;;;31.04;29.67;100788.89;107362;1254;99093;-64
2024/03/31 10:01:06;;;;;;;15.90;4.10;;;;;;;31.27;29.50;100779.02;107480;1253;113260;-63
2024/03/31 10:03:41;;;;;;;19.00;4.60;;;;;;;31.49;29.40;100776.11;107409;1254;108584;-63
2024/03/31 10:06:12;;;;;;;23.40;4.60;;;;;;;32.05;30.06;100764.58;107518;1254;107748;-63
2024/03/31 10:08:42;;;;;;;9.00;3.20;;;;;;;32.84;28.46;100764.17;107553;1256;99147;-64
2024/03/31 10:11:10;;;;;;;27.80;4.60;;;;;;;33.54;26.39;100765.36;107550;1251;99710;-64
2024/03/31 10:13:40;;;;;;;20.70;3.90;;;;;;;34.17;25.71;100764.77;107485;1250;112744;-63
2024/03/31 10:16:09;;;;;;;15.80;4.20;;;;;;;34.77;24.49;100758.94;107475;1254;107568;-63
2024/03/31 10:18:38;;;;;;;18.30;3.40;;;;;;;35.20;23.88;100759.41;107547;1253;108570;-63
2024/03/31 10:21:07;;;;;;;21.50;4.00;;;;;;;35.63;23.80;100754.03;107433;1256;99847;-63
2024/03/31 10:23:35;;;;;;;32.30;7.50;;;;;;;35.56;23.43;100754.89;107499;1251;99055;-64
2024/03/31 10:26:05;;;;;;;25.60;9.80;;;;;;;35.19;23.82;100751.65;107484;1251;113473;-62
2024/03/31 10:28:35;;;;;;;20.60;4.70;;;;;;;35.16;23.84;100747.50;107438;1255;107799;-63
2024/03/31 10:31:03;;;;;;;17.00;4.20;;;;;;;35.15;23.25;100746.34;107488;1255;107593;-63
2024/03/31 10:33:32;;;;;;;26.90;5.20;;;;;;;34.77;23.67;100749.38;107543;1253;99217;-63
2024/03/31 10:36:12;;;;;;;19.30;4.00;;;;;;;34.80;24.15;100755.28;107298;1256;97618;-63
2024/03/31 10:38:44;;;;;;;20.60;3.80;;;;;;;35.03;23.47;100749.17;107525;1254;113543;-63
2024/03/31 10:41:12;;;;;;;;;;;;;;;34.96;23.71;100745.56;107482;1253;107589;-62
2024/03/31 10:43:41;;;;;;;23.50;5.00;;;;;;;35.00;23.70;100737.58;107460;1256;108185;-62
2024/03/31 10:46:10;;;;;;;35.00;4.60;;;;;;;35.22;23.24;100742.38;107460;1254;99342;-64
2024/03/31 10:48:38;;;;;;;30.20;5.80;;;;;;;35.30;23.23;100738.95;107543;1251;99054;-62
2024/03/31 10:51:13;;;;;;;22.00;4.40;;;;;;;35.52;23.66;100732.64;107508;1251;112497;-64
2024/03/31 10:53:42;;;;;;;20.50;4.20;;;;;;;35.99;23.16;100732.80;107367;1253;108727;-63
2024/03/31 10:56:10;;;;;;;15.40;3.80;;;;;;;36.33;22.47;100730.95;107535;1254;107360;-63
2024/03/31 10:58:39;;;;;;;17.80;4.00;;;;;;;36.73;22.51;100728.28;107473;1250;99173;-64
2024/03/31 11:01:16;;;;;;;17.40;3.70;;;;;;;37.19;21.63;100724.11;107587;1250;99238;-62
2024/03/31 11:03:46;;;;;;;13.20;2.90;;;;;;;37.72;20.21;100718.27;107609;1251;112381;-63
2024/03/31 11:06:16;;;;;;;18.10;3.10;;;;;;;38.39;18.58;100712.69;107585;1250;108774;-63
2024/03/31 11:08:45;;;;;;;12.40;2.90;;;;;;;38.79;17.74;100705.40;107559;1251;108214;-63
2024/03/31 11:11:14;;;;;;;10.90;2.60;;;;;;;39.08;17.84;100702.02;107610;1254;99188;-64
2024/03/31 11:13:43;;;;;;;56.00;5.50;;;;;;;39.41;17.41;100694.77;107585;1251;99071;-64